sensor_id;sensor_type;location;lat;lon;timestamp;P1;durP1;ratioP1;P2;durP2;ratioP2
35530;SDS011;21637;53.352;-6.356;2023-07-29T00:00:34;8.27;;;2.47;;
35530;SDS011;21637;53.352;-6.356;2023-07-29T00:02:59;6.55;;;1.55;;
35530;SDS011;21637;53.352;-6.356;2023-07-29T00:05:25;8.00;;;1.85;;
35530;SDS011;21637;53.352;-6.356;2023-07-29T00:07:51;5.80;;;1.80;;
35530;SDS011;21637;53.352;-6.356;2023-07-29T00:10:17;3.65;;;1.58;;
35530;SDS011;21637;53.352;-6.356;2023-07-29T00:12:43;7.82;;;2.25;;
35530;SDS011;21637;53.352;-6.356;2023-07-29T00:15:09;5.82;;;1.85;;
35530;SDS011;21637;53.352;-6.356;2023-07-29T00:17:35;5.68;;;1.85;;
35530;SDS011;21637;53.352;-6.356;2023-07-29T00:20:00;6.78;;;1.55;;
35530;SDS011;21637;53.352;-6.356;2023-07-29T00:22:26;8.63;;;1.95;;
35530;SDS011;21637;53.352;-6.356;2023-07-29T00:24:52;6.53;;;1.77;;
35530;SDS011;21637;53.352;-6.356;2023-07-29T00:27:20;5.32;;;1.48;;
35530;SDS011;21637;53.352;-6.356;2023-07-29T00:29:46;7.00;;;2.10;;
35530;SDS011;21637;53.352;-6.356;2023-07-29T00:32:12;6.28;;;1.80;;
35530;SDS011;21637;53.352;-6.356;2023-07-29T00:34:38;5.93;;;1.70;;
35530;SDS011;21637;53.352;-6.356;2023-07-29T00:37:03;9.60;;;2.83;;
35530;SDS011;21637;53.352;-6.356;2023-07-29T00:39:31;5.72;;;2.15;;
35530;SDS011;21637;53.352;-6.356;2023-07-29T00:41:57;6.07;;;1.58;;
35530;SDS011;21637;53.352;-6.356;2023-07-29T00:44:23;7.70;;;2.30;;
35530;SDS011;21637;53.352;-6.356;2023-07-29T00:46:50;8.45;;;2.58;;
35530;SDS011;21637;53.352;-6.356;2023-07-29T00:49:17;6.35;;;1.52;;
35530;SDS011;21637;53.352;-6.356;2023-07-29T00:51:44;6.43;;;2.08;;
35530;SDS011;21637;53.352;-6.356;2023-07-29T00:54:10;6.82;;;1.83;;
35530;SDS011;21637;53.352;-6.356;2023-07-29T00:56:36;6.68;;;1.77;;
35530;SDS011;21637;53.352;-6.356;2023-07-29T00:59:03;8.15;;;2.10;;
35530;SDS011;21637;53.352;-6.356;2023-07-29T01:01:30;6.25;;;1.70;;
35530;SDS011;21637;53.352;-6.356;2023-07-29T01:03:56;9.45;;;2.17;;
35530;SDS011;21637;53.352;-6.356;2023-07-29T01:06:26;8.52;;;1.98;;
35530;SDS011;21637;53.352;-6.356;2023-07-29T01:14:05;8.63;;;2.10;;
35530;SDS011;21637;53.352;-6.356;2023-07-29T01:16:41;11.32;;;2.25;;
35530;SDS011;21637;53.352;-6.356;2023-07-29T01:19:13;10.52;;;2.15;;
35530;SDS011;21637;53.352;-6.356;2023-07-29T01:22:03;7.97;;;2.15;;
35530;SDS011;21637;53.352;-6.356;2023-07-29T01:24:31;9.88;;;2.80;;
35530;SDS011;21637;53.352;-6.356;2023-07-29T01:26:56;10.15;;;2.17;;
35530;SDS011;21637;53.352;-6.356;2023-07-29T01:29:22;5.75;;;2.10;;
35530;SDS011;21637;53.352;-6.356;2023-07-29T01:31:48;9.43;;;2.72;;
35530;SDS011;21637;53.352;-6.356;2023-07-29T01:34:29;7.75;;;1.73;;
35530;SDS011;21637;53.352;-6.356;2023-07-29T01:37:16;8.38;;;2.10;;
35530;SDS011;21637;53.352;-6.356;2023-07-29T01:39:47;8.35;;;2.47;;
35530;SDS011;21637;53.352;-6.356;2023-07-29T01:42:15;9.57;;;2.40;;
35530;SDS011;21637;53.352;-6.356;2023-07-29T01:44:41;7.60;;;2.17;;
35530;SDS011;21637;53.352;-6.356;2023-07-29T01:47:07;7.50;;;2.63;;
35530;SDS011;21637;53.352;-6.356;2023-07-29T01:49:33;9.30;;;2.28;;
35530;SDS011;21637;53.352;-6.356;2023-07-29T01:51:59;13.77;;;2.65;;
35530;SDS011;21637;53.352;-6.356;2023-07-29T01:54:25;14.35;;;3.00;;
35530;SDS011;21637;53.352;-6.356;2023-07-29T01:56:50;10.25;;;2.20;;
35530;SDS011;21637;53.352;-6.356;2023-07-29T01:59:16;12.43;;;2.20;;
35530;SDS011;21637;53.352;-6.356;2023-07-29T02:01:42;7.82;;;2.47;;
35530;SDS011;21637;53.352;-6.356;2023-07-29T02:04:08;13.98;;;2.70;;
35530;SDS011;21637;53.352;-6.356;2023-07-29T02:06:33;13.02;;;2.90;;
35530;SDS011;21637;53.352;-6.356;2023-07-29T02:08:59;10.00;;;2.33;;
35530;SDS011;21637;53.352;-6.356;2023-07-29T02:11:25;14.65;;;3.25;;
35530;SDS011;21637;53.352;-6.356;2023-07-29T02:13:53;17.17;;;2.90;;
35530;SDS011;21637;53.352;-6.356;2023-07-29T02:16:20;15.88;;;3.28;;
35530;SDS011;21637;53.352;-6.356;2023-07-29T02:18:47;11.90;;;2.60;;
35530;SDS011;21637;53.352;-6.356;2023-07-29T02:21:14;9.32;;;2.90;;
35530;SDS011;21637;53.352;-6.356;2023-07-29T02:23:40;8.52;;;2.72;;
35530;SDS011;21637;53.352;-6.356;2023-07-29T02:26:06;12.38;;;2.75;;
35530;SDS011;21637;53.352;-6.356;2023-07-29T02:28:32;12.43;;;2.85;;
35530;SDS011;21637;53.352;-6.356;2023-07-29T02:33:48;10.52;;;2.60;;
35530;SDS011;21637;53.352;-6.356;2023-07-29T02:36:14;11.23;;;2.50;;
35530;SDS011;21637;53.352;-6.356;2023-07-29T02:38:41;9.55;;;2.78;;
35530;SDS011;21637;53.352;-6.356;2023-07-29T02:41:10;14.25;;;2.63;;
35530;SDS011;21637;53.352;-6.356;2023-07-29T02:43:37;14.70;;;2.65;;
35530;SDS011;21637;53.352;-6.356;2023-07-29T02:46:03;10.93;;;2.42;;
35530;SDS011;21637;53.352;-6.356;2023-07-29T02:48:30;6.32;;;2.60;;
35530;SDS011;21637;53.352;-6.356;2023-07-29T02:50:56;15.48;;;3.33;;
35530;SDS011;21637;53.352;-6.356;2023-07-29T02:53:22;9.77;;;2.50;;
35530;SDS011;21637;53.352;-6.356;2023-07-29T02:55:48;15.18;;;3.50;;
35530;SDS011;21637;53.352;-6.356;2023-07-29T02:58:14;9.30;;;1.95;;
35530;SDS011;21637;53.352;-6.356;2023-07-29T03:00:40;11.38;;;2.58;;
35530;SDS011;21637;53.352;-6.356;2023-07-29T03:03:08;13.50;;;2.63;;
35530;SDS011;21637;53.352;-6.356;2023-07-29T03:05:34;13.57;;;2.38;;
35530;SDS011;21637;53.352;-6.356;2023-07-29T03:08:01;13.95;;;2.63;;
35530;SDS011;21637;53.352;-6.356;2023-07-29T03:10:26;8.77;;;2.42;;
35530;SDS011;21637;53.352;-6.356;2023-07-29T03:12:55;12.85;;;2.30;;
35530;SDS011;21637;53.352;-6.356;2023-07-29T03:15:24;15.10;;;2.80;;
35530;SDS011;21637;53.352;-6.356;2023-07-29T03:17:50;11.77;;;2.50;;
35530;SDS011;21637;53.352;-6.356;2023-07-29T03:20:16;14.00;;;2.65;;
35530;SDS011;21637;53.352;-6.356;2023-07-29T03:22:43;11.10;;;2.60;;
35530;SDS011;21637;53.352;-6.356;2023-07-29T03:25:09;11.43;;;2.92;;
35530;SDS011;21637;53.352;-6.356;2023-07-29T03:27:35;9.85;;;2.80;;
35530;SDS011;21637;53.352;-6.356;2023-07-29T03:30:05;16.15;;;2.55;;
35530;SDS011;21637;53.352;-6.356;2023-07-29T03:32:31;12.38;;;2.60;;
35530;SDS011;21637;53.352;-6.356;2023-07-29T03:34:57;14.45;;;2.72;;
35530;SDS011;21637;53.352;-6.356;2023-07-29T03:37:23;14.60;;;3.38;;
35530;SDS011;21637;53.352;-6.356;2023-07-29T03:39:49;12.45;;;2.95;;
35530;SDS011;21637;53.352;-6.356;2023-07-29T03:42:17;15.85;;;3.03;;
35530;SDS011;21637;53.352;-6.356;2023-07-29T03:44:43;13.05;;;2.75;;
35530;SDS011;21637;53.352;-6.356;2023-07-29T03:47:08;15.38;;;3.08;;
35530;SDS011;21637;53.352;-6.356;2023-07-29T03:49:34;15.02;;;3.00;;
35530;SDS011;21637;53.352;-6.356;2023-07-29T03:51:59;14.15;;;2.92;;
35530;SDS011;21637;53.352;-6.356;2023-07-29T03:54:25;10.35;;;3.03;;
35530;SDS011;21637;53.352;-6.356;2023-07-29T03:56:51;11.10;;;2.30;;
35530;SDS011;21637;53.352;-6.356;2023-07-29T03:59:17;11.55;;;2.70;;
35530;SDS011;21637;53.352;-6.356;2023-07-29T04:01:42;13.48;;;2.65;;
35530;SDS011;21637;53.352;-6.356;2023-07-29T04:04:08;16.67;;;3.00;;
35530;SDS011;21637;53.352;-6.356;2023-07-29T04:06:33;14.45;;;2.90;;
35530;SDS011;21637;53.352;-6.356;2023-07-29T04:08:59;14.40;;;2.70;;
35530;SDS011;21637;53.352;-6.356;2023-07-29T04:11:25;14.10;;;2.40;;
35530;SDS011;21637;53.352;-6.356;2023-07-29T04:13:51;12.55;;;2.78;;
35530;SDS011;21637;53.352;-6.356;2023-07-29T04:16:16;12.52;;;2.80;;
35530;SDS011;21637;53.352;-6.356;2023-07-29T04:18:42;14.13;;;2.58;;
35530;SDS011;21637;53.352;-6.356;2023-07-29T04:21:08;12.55;;;3.17;;
35530;SDS011;21637;53.352;-6.356;2023-07-29T04:23:34;10.05;;;2.35;;
35530;SDS011;21637;53.352;-6.356;2023-07-29T04:26:00;12.23;;;2.70;;
35530;SDS011;21637;53.352;-6.356;2023-07-29T04:28:26;9.45;;;2.65;;
35530;SDS011;21637;53.352;-6.356;2023-07-29T04:30:51;11.18;;;2.85;;
35530;SDS011;21637;53.352;-6.356;2023-07-29T04:33:17;6.60;;;2.10;;
35530;SDS011;21637;53.352;-6.356;2023-07-29T04:35:43;11.98;;;3.05;;
35530;SDS011;21637;53.352;-6.356;2023-07-29T04:38:09;10.48;;;2.17;;
35530;SDS011;21637;53.352;-6.356;2023-07-29T04:40:34;14.00;;;2.88;;
35530;SDS011;21637;53.352;-6.356;2023-07-29T04:43:00;8.35;;;2.50;;
35530;SDS011;21637;53.352;-6.356;2023-07-29T04:45:30;9.70;;;2.78;;
35530;SDS011;21637;53.352;-6.356;2023-07-29T04:47:56;13.57;;;2.95;;
35530;SDS011;21637;53.352;-6.356;2023-07-29T04:50:23;12.57;;;2.92;;
35530;SDS011;21637;53.352;-6.356;2023-07-29T04:52:49;15.77;;;2.67;;
35530;SDS011;21637;53.352;-6.356;2023-07-29T04:55:14;10.90;;;2.72;;
35530;SDS011;21637;53.352;-6.356;2023-07-29T04:57:40;11.63;;;2.55;;
35530;SDS011;21637;53.352;-6.356;2023-07-29T05:00:06;11.57;;;2.72;;
35530;SDS011;21637;53.352;-6.356;2023-07-29T05:02:32;10.82;;;2.60;;
35530;SDS011;21637;53.352;-6.356;2023-07-29T05:04:58;13.40;;;3.05;;
35530;SDS011;21637;53.352;-6.356;2023-07-29T05:07:23;11.40;;;2.70;;
35530;SDS011;21637;53.352;-6.356;2023-07-29T05:09:49;16.50;;;3.15;;
35530;SDS011;21637;53.352;-6.356;2023-07-29T05:12:15;8.50;;;2.00;;
35530;SDS011;21637;53.352;-6.356;2023-07-29T05:14:41;12.38;;;2.15;;
35530;SDS011;21637;53.352;-6.356;2023-07-29T05:17:06;18.58;;;2.88;;
35530;SDS011;21637;53.352;-6.356;2023-07-29T05:19:32;15.30;;;2.65;;
35530;SDS011;21637;53.352;-6.356;2023-07-29T05:21:58;14.18;;;2.40;;
35530;SDS011;21637;53.352;-6.356;2023-07-29T05:24:23;9.10;;;2.33;;
35530;SDS011;21637;53.352;-6.356;2023-07-29T05:26:49;11.80;;;2.55;;
35530;SDS011;21637;53.352;-6.356;2023-07-29T05:29:15;10.10;;;2.78;;
35530;SDS011;21637;53.352;-6.356;2023-07-29T05:31:40;10.43;;;2.25;;
35530;SDS011;21637;53.352;-6.356;2023-07-29T05:34:06;14.63;;;2.83;;
35530;SDS011;21637;53.352;-6.356;2023-07-29T05:36:32;16.73;;;2.88;;
35530;SDS011;21637;53.352;-6.356;2023-07-29T05:38:58;16.02;;;2.67;;
35530;SDS011;21637;53.352;-6.356;2023-07-29T05:41:24;14.90;;;2.28;;
35530;SDS011;21637;53.352;-6.356;2023-07-29T05:43:52;16.45;;;2.90;;
35530;SDS011;21637;53.352;-6.356;2023-07-29T05:46:18;15.65;;;2.92;;
35530;SDS011;21637;53.352;-6.356;2023-07-29T05:48:47;16.50;;;2.92;;
35530;SDS011;21637;53.352;-6.356;2023-07-29T05:51:12;9.88;;;2.50;;
35530;SDS011;21637;53.352;-6.356;2023-07-29T05:53:38;8.13;;;2.72;;
35530;SDS011;21637;53.352;-6.356;2023-07-29T05:56:04;13.63;;;2.83;;
35530;SDS011;21637;53.352;-6.356;2023-07-29T05:58:30;10.35;;;2.25;;
35530;SDS011;21637;53.352;-6.356;2023-07-29T06:00:56;12.40;;;2.88;;
35530;SDS011;21637;53.352;-6.356;2023-07-29T06:03:22;13.77;;;2.67;;
35530;SDS011;21637;53.352;-6.356;2023-07-29T06:05:48;11.60;;;2.58;;
35530;SDS011;21637;53.352;-6.356;2023-07-29T06:08:15;8.75;;;2.63;;
35530;SDS011;21637;53.352;-6.356;2023-07-29T06:10:40;12.20;;;2.50;;
35530;SDS011;21637;53.352;-6.356;2023-07-29T06:13:06;6.25;;;2.08;;
35530;SDS011;21637;53.352;-6.356;2023-07-29T06:15:32;16.17;;;3.15;;
35530;SDS011;21637;53.352;-6.356;2023-07-29T06:17:57;11.93;;;2.53;;
35530;SDS011;21637;53.352;-6.356;2023-07-29T06:20:23;10.05;;;2.60;;
35530;SDS011;21637;53.352;-6.356;2023-07-29T06:22:49;10.30;;;2.25;;
35530;SDS011;21637;53.352;-6.356;2023-07-29T06:25:15;19.90;;;3.20;;
35530;SDS011;21637;53.352;-6.356;2023-07-29T06:27:40;13.85;;;2.80;;
35530;SDS011;21637;53.352;-6.356;2023-07-29T06:30:06;13.85;;;2.72;;
35530;SDS011;21637;53.352;-6.356;2023-07-29T06:32:33;12.35;;;2.45;;
35530;SDS011;21637;53.352;-6.356;2023-07-29T06:34:59;11.80;;;2.40;;
35530;SDS011;21637;53.352;-6.356;2023-07-29T06:37:24;11.80;;;2.63;;
35530;SDS011;21637;53.352;-6.356;2023-07-29T06:39:50;16.13;;;2.53;;
35530;SDS011;21637;53.352;-6.356;2023-07-29T06:42:16;14.48;;;2.63;;
35530;SDS011;21637;53.352;-6.356;2023-07-29T06:44:42;17.63;;;2.80;;
35530;SDS011;21637;53.352;-6.356;2023-07-29T06:47:07;13.98;;;2.75;;
35530;SDS011;21637;53.352;-6.356;2023-07-29T06:49:33;10.77;;;2.75;;
35530;SDS011;21637;53.352;-6.356;2023-07-29T06:51:59;12.52;;;2.65;;
35530;SDS011;21637;53.352;-6.356;2023-07-29T06:54:25;11.13;;;2.63;;
35530;SDS011;21637;53.352;-6.356;2023-07-29T06:56:54;9.80;;;1.95;;
35530;SDS011;21637;53.352;-6.356;2023-07-29T06:59:19;10.15;;;2.45;;
35530;SDS011;21637;53.352;-6.356;2023-07-29T07:01:45;13.70;;;2.70;;
35530;SDS011;21637;53.352;-6.356;2023-07-29T07:04:11;9.90;;;2.40;;
35530;SDS011;21637;53.352;-6.356;2023-07-29T07:06:37;6.70;;;2.40;;
35530;SDS011;21637;53.352;-6.356;2023-07-29T07:09:03;13.30;;;2.33;;
35530;SDS011;21637;53.352;-6.356;2023-07-29T07:11:28;10.18;;;2.00;;
35530;SDS011;21637;53.352;-6.356;2023-07-29T07:13:54;11.80;;;2.42;;
35530;SDS011;21637;53.352;-6.356;2023-07-29T07:16:20;11.60;;;2.53;;
35530;SDS011;21637;53.352;-6.356;2023-07-29T07:18:46;12.15;;;2.58;;
35530;SDS011;21637;53.352;-6.356;2023-07-29T07:21:11;16.40;;;3.10;;
35530;SDS011;21637;53.352;-6.356;2023-07-29T07:23:38;11.88;;;2.22;;
35530;SDS011;21637;53.352;-6.356;2023-07-29T07:26:04;10.00;;;2.15;;
35530;SDS011;21637;53.352;-6.356;2023-07-29T07:28:30;9.98;;;2.10;;
35530;SDS011;21637;53.352;-6.356;2023-07-29T07:30:55;12.20;;;2.50;;
35530;SDS011;21637;53.352;-6.356;2023-07-29T07:33:22;14.13;;;2.58;;
35530;SDS011;21637;53.352;-6.356;2023-07-29T07:35:47;15.75;;;2.42;;
35530;SDS011;21637;53.352;-6.356;2023-07-29T07:38:13;9.43;;;3.08;;
35530;SDS011;21637;53.352;-6.356;2023-07-29T07:40:39;10.75;;;2.28;;
35530;SDS011;21637;53.352;-6.356;2023-07-29T07:43:05;7.95;;;2.40;;
35530;SDS011;21637;53.352;-6.356;2023-07-29T07:45:31;11.55;;;2.63;;
35530;SDS011;21637;53.352;-6.356;2023-07-29T07:47:57;12.20;;;2.38;;
35530;SDS011;21637;53.352;-6.356;2023-07-29T07:50:24;11.00;;;2.55;;
35530;SDS011;21637;53.352;-6.356;2023-07-29T07:52:49;7.10;;;2.08;;
35530;SDS011;21637;53.352;-6.356;2023-07-29T07:55:15;13.02;;;2.60;;
35530;SDS011;21637;53.352;-6.356;2023-07-29T07:57:41;8.02;;;2.13;;
35530;SDS011;21637;53.352;-6.356;2023-07-29T08:00:07;11.70;;;2.30;;
35530;SDS011;21637;53.352;-6.356;2023-07-29T08:02:33;11.50;;;2.97;;
35530;SDS011;21637;53.352;-6.356;2023-07-29T08:04:58;10.48;;;2.10;;
35530;SDS011;21637;53.352;-6.356;2023-07-29T08:07:24;8.43;;;2.10;;
35530;SDS011;21637;53.352;-6.356;2023-07-29T08:09:50;13.15;;;2.55;;
35530;SDS011;21637;53.352;-6.356;2023-07-29T08:12:16;8.23;;;1.90;;
35530;SDS011;21637;53.352;-6.356;2023-07-29T08:14:41;12.32;;;2.13;;
35530;SDS011;21637;53.352;-6.356;2023-07-29T08:17:07;8.27;;;2.10;;
35530;SDS011;21637;53.352;-6.356;2023-07-29T08:19:33;10.93;;;2.00;;
35530;SDS011;21637;53.352;-6.356;2023-07-29T08:22:01;6.68;;;2.08;;
35530;SDS011;21637;53.352;-6.356;2023-07-29T08:24:28;8.18;;;1.80;;
35530;SDS011;21637;53.352;-6.356;2023-07-29T08:26:53;7.57;;;2.10;;
35530;SDS011;21637;53.352;-6.356;2023-07-29T08:29:19;10.10;;;2.03;;
35530;SDS011;21637;53.352;-6.356;2023-07-29T08:31:45;9.70;;;2.08;;
35530;SDS011;21637;53.352;-6.356;2023-07-29T08:34:10;10.38;;;2.30;;
35530;SDS011;21637;53.352;-6.356;2023-07-29T08:36:36;6.95;;;1.70;;
35530;SDS011;21637;53.352;-6.356;2023-07-29T08:39:02;12.60;;;2.63;;
35530;SDS011;21637;53.352;-6.356;2023-07-29T08:41:32;5.93;;;1.92;;
35530;SDS011;21637;53.352;-6.356;2023-07-29T08:44:12;7.53;;;2.10;;
35530;SDS011;21637;53.352;-6.356;2023-07-29T08:46:43;11.45;;;2.05;;
35530;SDS011;21637;53.352;-6.356;2023-07-29T08:49:11;8.98;;;2.30;;
35530;SDS011;21637;53.352;-6.356;2023-07-29T08:51:38;9.68;;;2.10;;
35530;SDS011;21637;53.352;-6.356;2023-07-29T08:54:07;8.02;;;1.92;;
35530;SDS011;21637;53.352;-6.356;2023-07-29T08:56:34;10.18;;;2.17;;
35530;SDS011;21637;53.352;-6.356;2023-07-29T08:58:59;7.82;;;2.05;;
35530;SDS011;21637;53.352;-6.356;2023-07-29T09:01:27;10.23;;;2.40;;
35530;SDS011;21637;53.352;-6.356;2023-07-29T09:03:53;8.52;;;2.15;;
35530;SDS011;21637;53.352;-6.356;2023-07-29T09:06:19;13.25;;;2.30;;
35530;SDS011;21637;53.352;-6.356;2023-07-29T09:08:46;13.93;;;2.60;;
35530;SDS011;21637;53.352;-6.356;2023-07-29T09:11:15;8.88;;;2.15;;
35530;SDS011;21637;53.352;-6.356;2023-07-29T09:13:42;9.77;;;1.98;;
35530;SDS011;21637;53.352;-6.356;2023-07-29T09:16:08;11.27;;;2.65;;
35530;SDS011;21637;53.352;-6.356;2023-07-29T09:18:34;7.68;;;1.92;;
35530;SDS011;21637;53.352;-6.356;2023-07-29T09:21:00;8.02;;;2.53;;
35530;SDS011;21637;53.352;-6.356;2023-07-29T09:23:26;8.73;;;1.92;;
35530;SDS011;21637;53.352;-6.356;2023-07-29T09:26:02;8.75;;;2.00;;
35530;SDS011;21637;53.352;-6.356;2023-07-29T09:28:31;6.50;;;1.85;;
35530;SDS011;21637;53.352;-6.356;2023-07-29T09:30:59;15.18;;;2.58;;
35530;SDS011;21637;53.352;-6.356;2023-07-29T09:33:25;10.30;;;2.00;;
35530;SDS011;21637;53.352;-6.356;2023-07-29T09:35:51;7.20;;;2.15;;
35530;SDS011;21637;53.352;-6.356;2023-07-29T09:38:17;5.80;;;1.58;;
35530;SDS011;21637;53.352;-6.356;2023-07-29T09:40:43;7.43;;;1.92;;
35530;SDS011;21637;53.352;-6.356;2023-07-29T09:43:12;11.55;;;2.22;;
35530;SDS011;21637;53.352;-6.356;2023-07-29T09:45:38;20.40;;;3.10;;
35530;SDS011;21637;53.352;-6.356;2023-07-29T09:48:04;9.57;;;1.95;;
35530;SDS011;21637;53.352;-6.356;2023-07-29T09:50:34;15.27;;;2.30;;
35530;SDS011;21637;53.352;-6.356;2023-07-29T09:53:00;27.10;;;2.92;;
35530;SDS011;21637;53.352;-6.356;2023-07-29T09:55:27;21.42;;;3.00;;
35530;SDS011;21637;53.352;-6.356;2023-07-29T09:57:57;10.48;;;2.00;;
35530;SDS011;21637;53.352;-6.356;2023-07-29T10:00:29;12.32;;;2.53;;
35530;SDS011;21637;53.352;-6.356;2023-07-29T10:02:56;13.88;;;2.10;;
35530;SDS011;21637;53.352;-6.356;2023-07-29T10:05:22;7.55;;;1.85;;
35530;SDS011;21637;53.352;-6.356;2023-07-29T10:07:50;9.75;;;2.25;;
35530;SDS011;21637;53.352;-6.356;2023-07-29T10:10:17;10.43;;;2.20;;
35530;SDS011;21637;53.352;-6.356;2023-07-29T10:12:42;7.28;;;2.00;;
35530;SDS011;21637;53.352;-6.356;2023-07-29T10:15:09;7.85;;;1.95;;
35530;SDS011;21637;53.352;-6.356;2023-07-29T10:17:35;8.32;;;2.13;;
35530;SDS011;21637;53.352;-6.356;2023-07-29T10:20:05;9.68;;;2.10;;
35530;SDS011;21637;53.352;-6.356;2023-07-29T10:22:37;4.47;;;1.50;;
35530;SDS011;21637;53.352;-6.356;2023-07-29T10:25:17;8.95;;;1.85;;
35530;SDS011;21637;53.352;-6.356;2023-07-29T10:27:55;7.57;;;1.88;;
35530;SDS011;21637;53.352;-6.356;2023-07-29T10:30:24;8.05;;;1.90;;
35530;SDS011;21637;53.352;-6.356;2023-07-29T10:32:50;8.98;;;2.03;;
35530;SDS011;21637;53.352;-6.356;2023-07-29T10:35:18;13.23;;;2.15;;
35530;SDS011;21637;53.352;-6.356;2023-07-29T10:37:44;6.43;;;1.70;;
35530;SDS011;21637;53.352;-6.356;2023-07-29T10:40:11;5.95;;;1.75;;
35530;SDS011;21637;53.352;-6.356;2023-07-29T10:42:37;9.82;;;1.65;;
35530;SDS011;21637;53.352;-6.356;2023-07-29T10:45:21;3.50;;;1.23;;
35530;SDS011;21637;53.352;-6.356;2023-07-29T10:47:47;5.90;;;2.00;;
35530;SDS011;21637;53.352;-6.356;2023-07-29T10:50:17;5.28;;;1.50;;
35530;SDS011;21637;53.352;-6.356;2023-07-29T10:52:46;8.48;;;1.58;;
35530;SDS011;21637;53.352;-6.356;2023-07-29T10:57:52;6.22;;;1.48;;
35530;SDS011;21637;53.352;-6.356;2023-07-29T11:00:42;5.68;;;1.50;;
35530;SDS011;21637;53.352;-6.356;2023-07-29T11:03:10;6.85;;;1.63;;
35530;SDS011;21637;53.352;-6.356;2023-07-29T11:05:43;10.60;;;1.23;;
35530;SDS011;21637;53.352;-6.356;2023-07-29T11:08:31;3.95;;;0.90;;
35530;SDS011;21637;53.352;-6.356;2023-07-29T11:13:27;2.67;;;0.63;;
35530;SDS011;21637;53.352;-6.356;2023-07-29T11:15:57;3.58;;;1.20;;
35530;SDS011;21637;53.352;-6.356;2023-07-29T11:18:30;2.70;;;0.65;;
35530;SDS011;21637;53.352;-6.356;2023-07-29T11:21:00;3.28;;;0.73;;
35530;SDS011;21637;53.352;-6.356;2023-07-29T11:23:30;6.10;;;1.17;;
35530;SDS011;21637;53.352;-6.356;2023-07-29T11:25:57;2.60;;;0.95;;
35530;SDS011;21637;53.352;-6.356;2023-07-29T11:28:24;3.60;;;1.08;;
35530;SDS011;21637;53.352;-6.356;2023-07-29T11:30:50;5.43;;;1.20;;
35530;SDS011;21637;53.352;-6.356;2023-07-29T11:33:17;5.63;;;1.20;;
35530;SDS011;21637;53.352;-6.356;2023-07-29T11:35:45;5.35;;;1.40;;
35530;SDS011;21637;53.352;-6.356;2023-07-29T11:38:14;7.32;;;1.30;;
35530;SDS011;21637;53.352;-6.356;2023-07-29T11:40:41;3.67;;;1.30;;
35530;SDS011;21637;53.352;-6.356;2023-07-29T11:43:07;3.80;;;1.20;;
35530;SDS011;21637;53.352;-6.356;2023-07-29T11:45:33;7.18;;;1.30;;
35530;SDS011;21637;53.352;-6.356;2023-07-29T11:48:00;6.20;;;1.42;;
35530;SDS011;21637;53.352;-6.356;2023-07-29T11:50:27;4.70;;;1.40;;
35530;SDS011;21637;53.352;-6.356;2023-07-29T11:52:53;4.03;;;1.38;;
35530;SDS011;21637;53.352;-6.356;2023-07-29T11:55:19;4.97;;;1.48;;
35530;SDS011;21637;53.352;-6.356;2023-07-29T11:57:45;4.05;;;1.27;;
35530;SDS011;21637;53.352;-6.356;2023-07-29T12:00:16;7.63;;;1.60;;
35530;SDS011;21637;53.352;-6.356;2023-07-29T12:02:43;5.07;;;1.48;;
35530;SDS011;21637;53.352;-6.356;2023-07-29T12:05:13;3.85;;;1.00;;
35530;SDS011;21637;53.352;-6.356;2023-07-29T12:07:40;8.52;;;1.48;;
35530;SDS011;21637;53.352;-6.356;2023-07-29T12:10:08;5.78;;;1.30;;
35530;SDS011;21637;53.352;-6.356;2023-07-29T12:12:53;3.38;;;1.50;;
35530;SDS011;21637;53.352;-6.356;2023-07-29T12:15:28;7.35;;;1.60;;
35530;SDS011;21637;53.352;-6.356;2023-07-29T12:17:58;5.30;;;1.30;;
35530;SDS011;21637;53.352;-6.356;2023-07-29T12:20:28;4.82;;;1.55;;
35530;SDS011;21637;53.352;-6.356;2023-07-29T12:23:00;6.45;;;1.52;;
35530;SDS011;21637;53.352;-6.356;2023-07-29T12:27:53;5.80;;;1.30;;
35530;SDS011;21637;53.352;-6.356;2023-07-29T12:30:22;5.22;;;1.70;;
35530;SDS011;21637;53.352;-6.356;2023-07-29T12:32:48;7.10;;;1.45;;
35530;SDS011;21637;53.352;-6.356;2023-07-29T12:35:14;5.88;;;1.40;;
35530;SDS011;21637;53.352;-6.356;2023-07-29T12:37:40;5.63;;;1.80;;
35530;SDS011;21637;53.352;-6.356;2023-07-29T12:40:21;7.47;;;1.70;;
35530;SDS011;21637;53.352;-6.356;2023-07-29T12:42:51;9.90;;;1.70;;
35530;SDS011;21637;53.352;-6.356;2023-07-29T12:45:17;7.95;;;1.65;;
35530;SDS011;21637;53.352;-6.356;2023-07-29T12:47:43;5.60;;;1.63;;
35530;SDS011;21637;53.352;-6.356;2023-07-29T12:50:16;18.23;;;2.90;;
35530;SDS011;21637;53.352;-6.356;2023-07-29T12:53:03;15.48;;;2.58;;
35530;SDS011;21637;53.352;-6.356;2023-07-29T12:55:36;8.77;;;2.42;;
35530;SDS011;21637;53.352;-6.356;2023-07-29T12:58:02;8.32;;;2.03;;
35530;SDS011;21637;53.352;-6.356;2023-07-29T13:00:28;5.10;;;1.63;;
35530;SDS011;21637;53.352;-6.356;2023-07-29T13:02:55;5.68;;;2.15;;
35530;SDS011;21637;53.352;-6.356;2023-07-29T13:05:20;7.97;;;1.85;;
35530;SDS011;21637;53.352;-6.356;2023-07-29T13:07:46;12.52;;;1.95;;
35530;SDS011;21637;53.352;-6.356;2023-07-29T13:10:12;7.57;;;2.17;;
35530;SDS011;21637;53.352;-6.356;2023-07-29T13:12:38;8.90;;;2.13;;
35530;SDS011;21637;53.352;-6.356;2023-07-29T13:15:04;8.30;;;2.20;;
35530;SDS011;21637;53.352;-6.356;2023-07-29T13:17:31;11.05;;;2.58;;
35530;SDS011;21637;53.352;-6.356;2023-07-29T13:19:57;12.30;;;2.40;;
35530;SDS011;21637;53.352;-6.356;2023-07-29T13:22:23;15.07;;;2.65;;
35530;SDS011;21637;53.352;-6.356;2023-07-29T13:24:48;11.07;;;2.60;;
35530;SDS011;21637;53.352;-6.356;2023-07-29T13:27:14;8.13;;;2.50;;
35530;SDS011;21637;53.352;-6.356;2023-07-29T13:29:40;9.95;;;2.58;;
35530;SDS011;21637;53.352;-6.356;2023-07-29T13:32:06;7.68;;;2.50;;
35530;SDS011;21637;53.352;-6.356;2023-07-29T13:34:32;8.02;;;1.77;;
35530;SDS011;21637;53.352;-6.356;2023-07-29T13:36:59;7.35;;;2.30;;
35530;SDS011;21637;53.352;-6.356;2023-07-29T13:39:25;8.90;;;2.10;;
35530;SDS011;21637;53.352;-6.356;2023-07-29T13:41:52;7.90;;;1.60;;
35530;SDS011;21637;53.352;-6.356;2023-07-29T13:44:18;6.50;;;1.73;;
35530;SDS011;21637;53.352;-6.356;2023-07-29T13:46:43;5.32;;;1.85;;
35530;SDS011;21637;53.352;-6.356;2023-07-29T13:49:09;4.38;;;1.15;;
35530;SDS011;21637;53.352;-6.356;2023-07-29T13:51:35;6.00;;;1.50;;
35530;SDS011;21637;53.352;-6.356;2023-07-29T13:54:01;4.60;;;1.35;;
35530;SDS011;21637;53.352;-6.356;2023-07-29T13:56:26;6.22;;;1.42;;
35530;SDS011;21637;53.352;-6.356;2023-07-29T13:58:52;6.78;;;1.48;;
35530;SDS011;21637;53.352;-6.356;2023-07-29T14:01:18;5.32;;;1.70;;
35530;SDS011;21637;53.352;-6.356;2023-07-29T14:03:44;5.43;;;1.55;;
35530;SDS011;21637;53.352;-6.356;2023-07-29T14:06:09;8.80;;;1.80;;
35530;SDS011;21637;53.352;-6.356;2023-07-29T14:08:35;8.35;;;1.67;;
35530;SDS011;21637;53.352;-6.356;2023-07-29T14:11:01;5.15;;;1.58;;
35530;SDS011;21637;53.352;-6.356;2023-07-29T14:13:26;7.10;;;1.80;;
35530;SDS011;21637;53.352;-6.356;2023-07-29T14:15:52;8.38;;;1.80;;
35530;SDS011;21637;53.352;-6.356;2023-07-29T14:18:18;5.72;;;1.50;;
35530;SDS011;21637;53.352;-6.356;2023-07-29T14:20:43;8.13;;;1.92;;
35530;SDS011;21637;53.352;-6.356;2023-07-29T14:23:09;6.00;;;1.45;;
35530;SDS011;21637;53.352;-6.356;2023-07-29T14:25:35;5.95;;;1.75;;
35530;SDS011;21637;53.352;-6.356;2023-07-29T14:28:00;6.55;;;1.75;;
35530;SDS011;21637;53.352;-6.356;2023-07-29T14:30:26;4.28;;;1.38;;
35530;SDS011;21637;53.352;-6.356;2023-07-29T14:32:52;5.25;;;1.35;;
35530;SDS011;21637;53.352;-6.356;2023-07-29T14:35:18;6.60;;;1.70;;
35530;SDS011;21637;53.352;-6.356;2023-07-29T14:37:43;5.63;;;1.40;;
35530;SDS011;21637;53.352;-6.356;2023-07-29T14:40:09;6.38;;;1.65;;
35530;SDS011;21637;53.352;-6.356;2023-07-29T14:42:35;6.22;;;1.75;;